^^
Saratoga-Weather Station Historical Data
Daily Summary for August 25, 2021 Units:  English    Metric   Both
Daily Weekly Monthly Yearly Custom
  High: Low: Average:
Temperature: 39.6 °F 29.7 °F 35.8 °F
Dew Point: 34.9 °F 28.2 °F 32.4 °F
Humidity: 96% 77% 88%
Wind Speed: 7mph 0mph 0.4mph
Wind Gust: 10mph - -
Wind- - WSW
Pressure: 29.9 in 29.8 in -
Precipitation: 0 in    
Historical Graphs
 
 
Tabular Data for August 25, 2021
Time Temperature Dew Point Pressure Wind Wind Speed Wind Gust Humidity Rainfall Rate (Hourly) solar
00:02 29.8 °F 28.4 °F 29.9 in Calm     94% 0 in 0 W/m2
00:07 29.8 °F 28.4 °F 29.9 in Calm     94% 0 in 0 W/m2
00:12 29.7 °F 28.2 °F 29.9 in Calm     94% 0 in 0 W/m2
00:17 29.8 °F 28.6 °F 29.9 in Calm     95% 0 in 0 W/m2
00:22 29.8 °F 28.6 °F 29.9 in Calm     95% 0 in 0 W/m2
00:27 29.8 °F 28.6 °F 29.9 in Calm     95% 0 in 0 W/m2
00:32 29.7 °F 28.4 °F 29.9 in Calm     95% 0 in 0 W/m2
00:37 29.7 °F 28.2 °F 29.9 in Calm     94% 0 in 0 W/m2
00:42 29.7 °F 28.4 °F 29.9 in Calm     95% 0 in 0 W/m2
00:47 29.7 °F 28.4 °F 29.9 in Calm     95% 0 in 0 W/m2
00:52 29.8 °F 28.6 °F 29.9 in ESE 0.9 mph 2 mph 95% 0 in 0 W/m2
00:57 30 °F 28.8 °F 29.9 in Calm     95% 0 in 0 W/m2
01:02 30 °F 28.8 °F 29.9 in Calm     95% 0 in 0 W/m2
01:07 30 °F 28.8 °F 29.9 in Calm     95% 0 in 0 W/m2
01:12 30 °F 28.8 °F 29.9 in Calm     95% 0 in 0 W/m2
01:17 30.2 °F 28.9 °F 29.9 in Calm     95% 0 in 0 W/m2
01:22 30.2 °F 28.9 °F 29.9 in Calm     95% 0 in 0 W/m2
01:27 30.2 °F 28.9 °F 29.9 in Calm     95% 0 in 0 W/m2
01:32 30.2 °F 28.9 °F 29.9 in Calm     95% 0 in 0 W/m2
01:47 30 °F 28.8 °F 29.9 in Calm     95% 0 in 0 W/m2
01:52 30.2 °F 28.9 °F 29.9 in Calm   1 mph 95% 0 in 0 W/m2
02:02 30 °F 28.8 °F 29.9 in Calm     95% 0 in 0 W/m2
02:07 29.8 °F 28.6 °F 29.9 in Calm     95% 0 in 0 W/m2
02:12 29.8 °F 28.6 °F 29.9 in ESE 0.9 mph 2 mph 95% 0 in 0 W/m2
02:17 29.8 °F 28.6 °F 29.9 in Calm   1 mph 95% 0 in 0 W/m2
02:22 30.2 °F 29.1 °F 29.9 in Calm     96% 0 in 0 W/m2
02:27 30.6 °F 29.5 °F 29.9 in Calm     96% 0 in 0 W/m2
02:32 30.9 °F 29.8 °F 29.9 in Calm     96% 0 in 0 W/m2
02:37 31.3 °F 30.2 °F 29.9 in Calm     96% 0 in 0 W/m2
02:42 31.5 °F 30.4 °F 29.9 in Calm     96% 0 in 0 W/m2
02:47 31.5 °F 30.4 °F 29.9 in Calm     96% 0 in 0 W/m2
02:52 31.5 °F 30.4 °F 29.9 in Calm     96% 0 in 0 W/m2
02:57 31.5 °F 30.4 °F 29.9 in Calm     96% 0 in 0 W/m2
03:02 31.5 °F 30.4 °F 29.9 in Calm     96% 0 in 0 W/m2
03:07 31.5 °F 30.4 °F 29.9 in Calm     96% 0 in 0 W/m2
03:12 31.6 °F 30.6 °F 29.9 in Calm     96% 0 in 0 W/m2
03:17 31.6 °F 30.6 °F 29.9 in Calm     96% 0 in 0 W/m2
03:22 31.8 °F 30.7 °F 29.9 in Calm     96% 0 in 0 W/m2
03:27 31.8 °F 30.7 °F 29.9 in Calm     96% 0 in 0 W/m2
03:32 32.2 °F 31.1 °F 29.9 in Calm     96% 0 in 0 W/m2
03:37 32.2 °F 31.1 °F 29.9 in Calm     96% 0 in 0 W/m2
03:42 32.2 °F 31.1 °F 29.9 in Calm     96% 0 in 0 W/m2
03:47 32.4 °F 31.3 °F 29.9 in Calm     96% 0 in 0 W/m2
03:52 32.4 °F 31.3 °F 29.9 in Calm     96% 0 in 0 W/m2
03:57 32.4 °F 31.3 °F 29.9 in Calm     96% 0 in 0 W/m2
04:02 32.4 °F 31.3 °F 29.9 in Calm     96% 0 in 0 W/m2
04:07 32.4 °F 31.3 °F 29.9 in Calm     96% 0 in 0 W/m2
04:12 32.5 °F 31.5 °F 29.9 in Calm     96% 0 in 0 W/m2
04:17 32.5 °F 31.5 °F 29.9 in Calm   1 mph 96% 0 in 0 W/m2
04:23 32.5 °F 31.5 °F 29.9 in Calm     96% 0 in 0 W/m2
04:28 32.5 °F 31.5 °F 29.9 in Calm   1 mph 96% 0 in 0 W/m2
04:33 32.5 °F 31.5 °F 29.9 in Calm     96% 0 in 0 W/m2
04:38 32.5 °F 31.5 °F 29.9 in Calm     96% 0 in 0 W/m2
04:43 32.7 °F 31.6 °F 29.9 in Calm     96% 0 in 0 W/m2
04:48 32.7 °F 31.6 °F 29.9 in Calm   1 mph 96% 0 in 0 W/m2
04:53 32.7 °F 31.6 °F 29.9 in Calm     96% 0 in 0 W/m2
04:58 32.7 °F 31.6 °F 29.9 in Calm   1 mph 96% 0 in 0 W/m2
05:03 32.9 °F 31.8 °F 29.9 in Calm     96% 0 in 0 W/m2
05:08 33.1 °F 32 °F 29.9 in Calm     96% 0 in 0 W/m2
05:13 33.1 °F 32 °F 29.9 in Calm     96% 0 in 0 W/m2
05:18 33.3 °F 32.2 °F 29.9 in Calm     96% 0 in 0 W/m2
05:23 33.4 °F 32.4 °F 29.9 in Calm     96% 0 in 0 W/m2
05:28 33.4 °F 32.4 °F 29.9 in Calm     96% 0 in 0 W/m2
05:33 33.6 °F 32.5 °F 29.9 in Calm   1 mph 96% 0 in 0 W/m2
05:38 33.8 °F 32.7 °F 29.9 in Calm     96% 0 in 0 W/m2
05:43 34 °F 32.9 °F 29.9 in Calm   1 mph 96% 0 in 0 W/m2
05:48 34.2 °F 33.1 °F 29.9 in Calm     96% 0 in 0 W/m2
05:58 34.2 °F 33.1 °F 29.9 in Calm     96% 0 in 0 W/m2
06:03 34.3 °F 33.3 °F 29.9 in Calm     96% 0 in 0 W/m2
06:08 34.3 °F 33.1 °F 29.9 in Calm     95% 0 in 0 W/m2
06:13 34.3 °F 33.1 °F 29.9 in Calm     95% 0 in 0 W/m2
06:18 34.3 °F 33.1 °F 29.9 in Calm     95% 0 in 0 W/m2
06:23 34.3 °F 33.1 °F 29.9 in Calm     95% 0 in 0 W/m2
06:28 34.3 °F 33.1 °F 29.9 in Calm     95% 0 in 0 W/m2
06:33 34.5 °F 33.3 °F 29.9 in Calm     95% 0 in 0 W/m2
06:38 34.5 °F 33.3 °F 29.9 in Calm     95% 0 in 0 W/m2
06:43 34.5 °F 33.3 °F 29.9 in Calm     95% 0 in 0 W/m2
06:48 34.5 °F 32.9 °F 29.9 in Calm     94% 0 in 0 W/m2
06:53 34.5 °F 32.9 °F 29.9 in Calm     94% 0 in 0 W/m2
06:58 34.5 °F 32.9 °F 29.9 in Calm     94% 0 in 0 W/m2
07:03 34.7 °F 33.1 °F 29.9 in Calm     94% 0 in 0 W/m2
07:08 34.7 °F 33.1 °F 29.9 in Calm     94% 0 in 0 W/m2
07:13 34.9 °F 33.3 °F 29.9 in Calm     94% 0 in 0 W/m2
07:18 34.9 °F 33.1 °F 29.9 in Calm     93% 0 in 0 W/m2
07:23 34.9 °F 33.1 °F 29.9 in Calm     93% 0 in 0 W/m2
07:28 34.9 °F 33.1 °F 29.9 in Calm     93% 0 in 0 W/m2
07:33 35.1 °F 33.3 °F 29.9 in Calm     93% 0 in 0 W/m2
07:38 35.1 °F 32.9 °F 29.9 in Calm     92% 0 in 0 W/m2
07:43 35.2 °F 33.1 °F 29.9 in Calm   1 mph 92% 0 in 0 W/m2
07:48 35.2 °F 33.1 °F 29.9 in Calm     92% 0 in 0 W/m2
07:53 35.2 °F 32.9 °F 29.9 in Calm   2 mph 91% 0 in 0 W/m2
07:58 35.2 °F 32.9 °F 29.9 in Calm     91% 0 in 0 W/m2
08:03 35.2 °F 32.9 °F 29.9 in Calm     91% 0 in 0 W/m2
08:08 35.4 °F 33.1 °F 29.9 in Calm     91% 0 in 0 W/m2
08:13 35.4 °F 33.1 °F 29.9 in Calm     91% 0 in 0 W/m2
08:18 35.4 °F 32.7 °F 29.9 in SE 1 mph 1 mph 90% 0 in 5 W/m2
08:23 35.6 °F 32.9 °F 29.9 in Calm     90% 0 in 5 W/m2
08:28 35.8 °F 33.1 °F 29.9 in Calm   1 mph 90% 0 in 7 W/m2
08:33 36 °F 33.3 °F 29.9 in Calm   1 mph 90% 0 in 9 W/m2
08:38 36 °F 33.1 °F 29.9 in Calm     89% 0 in 11 W/m2
08:43 36 °F 33.1 °F 29.9 in NW 2 mph 2 mph 89% 0 in 12 W/m2
08:48 36.1 °F 33.3 °F 29.9 in Calm     89% 0 in 18 W/m2
08:53 36.1 °F 32.9 °F 29.9 in WNW 0.9 mph 2 mph 88% 0 in 18 W/m2
08:58 36.3 °F 33.1 °F 29.9 in WNW 0.9 mph 2 mph 88% 0 in 16 W/m2
09:03 36.3 °F 32.9 °F 29.9 in Calm     87% 0 in 23 W/m2
09:08 36.5 °F 33.1 °F 29.9 in Calm   3 mph 87% 0 in 26 W/m2
09:13 36.7 °F 33.3 °F 29.9 in NNW 2 mph 3 mph 87% 0 in 32 W/m2
09:18 36.7 °F 32.9 °F 29.9 in Calm   1 mph 86% 0 in 30 W/m2
09:23 36.9 °F 33.1 °F 29.9 in Calm   3 mph 86% 0 in 35 W/m2
09:28 36.9 °F 33.1 °F 29.9 in NW 0.9 mph 5 mph 86% 0 in 32 W/m2
09:33 37 °F 32.9 °F 29.9 in Calm   2 mph 85% 0 in 28 W/m2
09:38 37 °F 32.9 °F 29.9 in Calm   5 mph 85% 0 in 32 W/m2
09:43 37 °F 32.9 °F 29.9 in Calm     85% 0 in 33 W/m2
09:48 37 °F 32.9 °F 29.9 in Calm   2 mph 85% 0 in 30 W/m2
09:53 37 °F 32.7 °F 29.9 in Calm   2 mph 84% 0 in 32 W/m2
09:58 37.2 °F 32.9 °F 29.9 in NNW 0.9 mph 1 mph 84% 0 in 28 W/m2
10:03 37.2 °F 32.9 °F 29.9 in Calm   1 mph 84% 0 in 28 W/m2
10:08 37.2 °F 32.5 °F 29.9 in Calm   2 mph 83% 0 in 28 W/m2
10:13 37.2 °F 32.9 °F 29.9 in Calm   2 mph 84% 0 in 35 W/m2
10:18 37.2 °F 32.5 °F 29.9 in Calm   2 mph 83% 0 in 44 W/m2
10:23 37.4 °F 33.1 °F 29.9 in NW 2 mph 3 mph 84% 0 in 54 W/m2
10:28 37.4 °F 32.7 °F 29.9 in NNW 0.9 mph 2 mph 83% 0 in 70 W/m2
10:33 37.6 °F 32.9 °F 29.9 in NNW 2.9 mph 4 mph 83% 0 in 70 W/m2
10:38 37.6 °F 32.5 °F 29.9 in Calm   1 mph 82% 0 in 70 W/m2
10:43 37.6 °F 32.5 °F 29.9 in Calm   3 mph 82% 0 in 74 W/m2
10:48 37.8 °F 32.7 °F 29.9 in NNW 0.9 mph 3 mph 82% 0 in 83 W/m2
10:53 37.8 °F 32.7 °F 29.9 in NNE 2 mph 2 mph 82% 0 in 88 W/m2
10:58 37.9 °F 32.9 °F 29.9 in NE 2 mph 2 mph 82% 0 in 91 W/m2
11:03 37.9 °F 32.7 °F 29.9 in NNW 0.9 mph 2 mph 81% 0 in 86 W/m2
11:13 37.9 °F 32.7 °F 29.9 in NW 2.9 mph 4 mph 81% 0 in 65 W/m2
11:18 37.9 °F 32.7 °F 29.9 in Calm   2 mph 81% 0 in 67 W/m2
11:23 37.9 °F 32.7 °F 29.9 in West 7 mph 7 mph 81% 0 in 72 W/m2
11:28 37.9 °F 32.4 °F 29.9 in NW 2.9 mph 3 mph 80% 0 in 79 W/m2
11:33 37.9 °F 32.4 °F 29.9 in NW 0.9 mph 7 mph 80% 0 in 84 W/m2
11:38 37.9 °F 32.7 °F 29.9 in NW 2 mph 3 mph 81% 0 in 100 W/m2
11:43 37.9 °F 32.4 °F 29.9 in ENE 0.9 mph 5 mph 80% 0 in 114 W/m2
11:48 37.9 °F 32.4 °F 29.9 in NNW 0.9 mph 2 mph 80% 0 in 91 W/m2
11:53 37.9 °F 32.4 °F 29.9 in WNW 0.9 mph 4 mph 80% 0 in 114 W/m2
11:58 37.9 °F 32 °F 29.9 in West 2.9 mph 7 mph 79% 0 in 88 W/m2
12:03 37.9 °F 32 °F 29.9 in NNW 2.9 mph 4 mph 79% 0 in 100 W/m2
12:08 37.9 °F 32 °F 29.9 in East 0.9 mph 5 mph 79% 0 in 111 W/m2
12:13 37.9 °F 32 °F 29.9 in NNE 2.9 mph 4 mph 79% 0 in 130 W/m2
12:18 38.1 °F 32.2 °F 29.9 in West 0.9 mph 5 mph 79% 0 in 118 W/m2
12:23 38.1 °F 32.2 °F 29.9 in North 2 mph 4 mph 79% 0 in 111 W/m2
12:28 38.1 °F 32.2 °F 29.9 in WNW 0.9 mph 10 mph 79% 0 in 125 W/m2
12:33 38.3 °F 32.4 °F 29.9 in WNW 2.9 mph 3 mph 79% 0 in 130 W/m2
12:38 38.5 °F 32.5 °F 29.9 in Calm   10 mph 79% 0 in 137 W/m2
12:43 38.5 °F 32.2 °F 29.9 in WNW 0.9 mph 3 mph 78% 0 in 123 W/m2
12:48 38.7 °F 32.4 °F 29.9 in ENE 0.9 mph 4 mph 78% 0 in 127 W/m2
12:53 38.7 °F 32.4 °F 29.9 in Calm   4 mph 78% 0 in 146 W/m2
12:58 38.8 °F 32.5 °F 29.9 in NW 2 mph 4 mph 78% 0 in 134 W/m2
13:03 38.8 °F 32.5 °F 29.9 in WNW 4.9 mph 6 mph 78% 0 in 151 W/m2
13:08 38.8 °F 32.5 °F 29.9 in NW 2.9 mph 3 mph 78% 0 in 142 W/m2
13:13 38.8 °F 32.5 °F 29.9 in North 2 mph 5 mph 78% 0 in 137 W/m2
13:18 39 °F 32.7 °F 29.9 in West 0.9 mph 6 mph 78% 0 in 121 W/m2
13:23 38.8 °F 32.2 °F 29.9 in North 0.9 mph 3 mph 77% 0 in 104 W/m2
13:28 38.8 °F 32.5 °F 29.9 in NNW 0.9 mph 5 mph 78% 0 in 104 W/m2
13:33 38.8 °F 32.2 °F 29.9 in WNW 2 mph 2 mph 77% 0 in 105 W/m2
13:38 38.8 °F 32.5 °F 29.9 in Calm   4 mph 78% 0 in 100 W/m2
13:43 38.8 °F 32.5 °F 29.8 in Calm   2 mph 78% 0 in 93 W/m2
13:48 38.8 °F 32.2 °F 29.8 in NNW 0.9 mph 1 mph 77% 0 in 98 W/m2
13:53 39 °F 32.7 °F 29.8 in ENE 2 mph 3 mph 78% 0 in 102 W/m2
13:59 39 °F 32.7 °F 29.8 in North 0.9 mph 3 mph 78% 0 in 93 W/m2
14:04 39.2 °F 32.5 °F 29.8 in Calm   2 mph 77% 0 in 95 W/m2
14:09 39.4 °F 32.7 °F 29.8 in East 0.9 mph 2 mph 77% 0 in 93 W/m2
14:14 39.4 °F 32.7 °F 29.9 in North 0.9 mph 5 mph 77% 0 in 97 W/m2
14:19 39.4 °F 32.7 °F 29.8 in WNW 0.9 mph 4 mph 77% 0 in 90 W/m2
14:24 39.6 °F 32.9 °F 29.8 in NNW 0.9 mph 5 mph 77% 0 in 90 W/m2
14:29 39.6 °F 32.9 °F 29.9 in NNW 2 mph 4 mph 77% 0 in 84 W/m2
14:34 39.6 °F 32.9 °F 29.8 in NNW 2 mph 2 mph 77% 0 in 77 W/m2
14:44 39.6 °F 32.9 °F 29.8 in North 2 mph 4 mph 77% 0 in 65 W/m2
14:49 39.6 °F 32.9 °F 29.8 in Calm   2 mph 77% 0 in 56 W/m2
14:54 39.6 °F 32.9 °F 29.8 in Calm     77% 0 in 53 W/m2
14:59 39.4 °F 32.7 °F 29.8 in NNW 0.9 mph 2 mph 77% 0 in 49 W/m2
15:04 39.4 °F 33.1 °F 29.8 in Calm   1 mph 78% 0 in 46 W/m2
15:09 39.2 °F 32.9 °F 29.8 in Calm   1 mph 78% 0 in 42 W/m2
15:14 39.2 °F 32.9 °F 29.8 in Calm   1 mph 78% 0 in 40 W/m2
15:19 39 °F 32.7 °F 29.8 in Calm     78% 0 in 39 W/m2
15:24 39 °F 33.1 °F 29.8 in Calm   2 mph 79% 0 in 35 W/m2
15:29 38.8 °F 32.9 °F 29.8 in Calm     79% 0 in 35 W/m2
15:34 38.8 °F 33.3 °F 29.8 in Calm   2 mph 80% 0 in 33 W/m2
15:39 38.7 °F 33.1 °F 29.9 in East 0.9 mph 1 mph 80% 0 in 30 W/m2
15:44 38.5 °F 33.1 °F 29.9 in Calm     81% 0 in 30 W/m2
15:49 38.3 °F 32.9 °F 29.8 in Calm     81% 0 in 30 W/m2
15:54 38.1 °F 33.1 °F 29.9 in Calm     82% 0 in 30 W/m2
16:04 37.8 °F 32.7 °F 29.8 in Calm     82% 0 in 26 W/m2
16:09 37.6 °F 32.9 °F 29.9 in Calm     83% 0 in 23 W/m2
16:14 37.6 °F 32.9 °F 29.9 in Calm     83% 0 in 21 W/m2
16:19 37.2 °F 32.5 °F 29.9 in Calm     83% 0 in 19 W/m2
16:24 37 °F 32.4 °F 29.9 in Calm     83% 0 in 16 W/m2
16:29 36.9 °F 32.2 °F 29.9 in Calm     83% 0 in 11 W/m2
16:34 36.9 °F 32.5 °F 29.9 in Calm     84% 0 in 9 W/m2
16:39 36.5 °F 32.2 °F 29.9 in Calm     84% 0 in 5 W/m2
16:44 36.3 °F 32.2 °F 29.9 in Calm   1 mph 85% 0 in 5 W/m2
16:49 36.1 °F 32 °F 29.9 in Calm     85% 0 in 0 W/m2
16:54 36 °F 32.2 °F 29.9 in Calm     86% 0 in 0 W/m2
16:59 36 °F 32.2 °F 29.9 in Calm     86% 0 in 0 W/m2
17:09 36 °F 32.5 °F 29.9 in Calm     87% 0 in 0 W/m2
17:14 36.1 °F 32.7 °F 29.9 in Calm     87% 0 in 0 W/m2
17:19 36.1 °F 32.7 °F 29.9 in Calm     87% 0 in 0 W/m2
17:24 36.1 °F 32.7 °F 29.9 in Calm     87% 0 in 0 W/m2
17:29 36.1 °F 32.7 °F 29.9 in Calm     87% 0 in 0 W/m2
17:34 36.3 °F 32.9 °F 29.8 in Calm     87% 0 in 0 W/m2
17:39 36.3 °F 32.9 °F 29.8 in Calm     87% 0 in 0 W/m2
17:44 36.5 °F 32.7 °F 29.8 in Calm     86% 0 in 0 W/m2
17:49 36.5 °F 32.7 °F 29.8 in Calm     86% 0 in 0 W/m2
17:54 36.5 °F 33.1 °F 29.9 in Calm     87% 0 in 0 W/m2
17:59 36.5 °F 32.7 °F 29.9 in Calm     86% 0 in 0 W/m2
18:04 36.3 °F 32.5 °F 29.9 in Calm     86% 0 in 0 W/m2
18:09 36.3 °F 32.5 °F 29.9 in Calm     86% 0 in 0 W/m2
18:14 36.3 °F 32.5 °F 29.9 in Calm     86% 0 in 0 W/m2
18:19 36.1 °F 32.7 °F 29.9 in Calm     87% 0 in 0 W/m2
18:24 36.1 °F 32.7 °F 29.9 in Calm     87% 0 in 0 W/m2
18:29 36.1 °F 32.7 °F 29.9 in Calm     87% 0 in 0 W/m2
18:34 36.1 °F 32.7 °F 29.9 in Calm     87% 0 in 0 W/m2
18:39 36.3 °F 32.9 °F 29.9 in Calm     87% 0 in 0 W/m2
18:44 36.3 °F 33.1 °F 29.9 in Calm     88% 0 in 0 W/m2
18:49 36.5 °F 33.3 °F 29.9 in Calm     88% 0 in 0 W/m2
18:54 36.7 °F 33.4 °F 29.9 in Calm     88% 0 in 0 W/m2
18:59 36.9 °F 33.6 °F 29.9 in Calm     88% 0 in 0 W/m2
19:04 36.9 °F 33.6 °F 29.9 in Calm     88% 0 in 0 W/m2
19:09 36.9 °F 33.6 °F 29.9 in Calm     88% 0 in 0 W/m2
19:14 37 °F 33.8 °F 29.9 in East 1 mph 1 mph 88% 0 in 0 W/m2
19:19 37.2 °F 34 °F 29.9 in East 2 mph 2 mph 88% 0 in 0 W/m2
19:24 37.4 °F 33.8 °F 29.9 in Calm   1 mph 87% 0 in 0 W/m2
19:29 37.4 °F 33.8 °F 29.9 in Calm     87% 0 in 0 W/m2
19:34 37.6 °F 34 °F 29.9 in Calm     87% 0 in 0 W/m2
19:39 37.6 °F 34 °F 29.9 in Calm     87% 0 in 0 W/m2
19:44 37.6 °F 34 °F 29.9 in Calm     87% 0 in 0 W/m2
19:49 37.6 °F 34 °F 29.9 in Calm     87% 0 in 0 W/m2
19:54 37.6 °F 34 °F 29.9 in Calm     87% 0 in 0 W/m2
19:59 37.6 °F 34 °F 29.9 in Calm     87% 0 in 0 W/m2
20:04 37.6 °F 34 °F 29.9 in Calm     87% 0 in 0 W/m2
20:09 37.6 °F 34 °F 29.9 in Calm     87% 0 in 0 W/m2
20:14 37.6 °F 34 °F 29.9 in Calm     87% 0 in 0 W/m2
20:19 37.6 °F 34 °F 29.9 in Calm     87% 0 in 0 W/m2
20:24 37.6 °F 34 °F 29.9 in Calm     87% 0 in 0 W/m2
20:29 37.6 °F 34 °F 29.9 in Calm     87% 0 in 0 W/m2
20:34 37.6 °F 34 °F 29.9 in Calm   1 mph 87% 0 in 0 W/m2
20:39 37.8 °F 34.5 °F 29.9 in WNW 0.9 mph 2 mph 88% 0 in 0 W/m2
20:49 37.8 °F 34.2 °F 29.9 in Calm   1 mph 87% 0 in 0 W/m2
20:54 37.8 °F 34.2 °F 29.9 in Calm     87% 0 in 0 W/m2
20:59 37.8 °F 34.2 °F 29.9 in Calm     87% 0 in 0 W/m2
21:04 37.8 °F 34.2 °F 29.9 in Calm   2 mph 87% 0 in 0 W/m2
21:09 37.9 °F 34.3 °F 29.8 in Calm     87% 0 in 0 W/m2
21:15 37.9 °F 34.3 °F 29.9 in WNW 0.9 mph 2 mph 87% 0 in 0 W/m2
21:20 38.1 °F 34.3 °F 29.9 in Calm   1 mph 86% 0 in 0 W/m2
21:25 38.1 °F 34.3 °F 29.8 in West 2 mph 4 mph 86% 0 in 0 W/m2
21:30 38.5 °F 34.7 °F 29.8 in Calm   3 mph 86% 0 in 0 W/m2
21:35 38.5 °F 34.3 °F 29.8 in Calm   1 mph 85% 0 in 0 W/m2
21:40 38.7 °F 34.5 °F 29.8 in Calm     85% 0 in 0 W/m2
21:45 38.7 °F 34.5 °F 29.8 in Calm     85% 0 in 0 W/m2
21:50 38.7 °F 34.5 °F 29.8 in Calm   1 mph 85% 0 in 0 W/m2
21:55 38.7 °F 34.9 °F 29.8 in Calm     86% 0 in 0 W/m2
22:00 38.7 °F 34.9 °F 29.8 in Calm     86% 0 in 0 W/m2
22:05 38.7 °F 34.9 °F 29.8 in Calm     86% 0 in 0 W/m2
22:10 38.7 °F 34.9 °F 29.8 in WNW 0.9 mph 2 mph 86% 0 in 0 W/m2
22:15 38.5 °F 34.7 °F 29.8 in WNW 2 mph 2 mph 86% 0 in 0 W/m2
22:20 38.5 °F 34.7 °F 29.8 in Calm     86% 0 in 0 W/m2
22:25 38.5 °F 34.9 °F 29.8 in Calm   1 mph 87% 0 in 0 W/m2
22:30 38.3 °F 34.7 °F 29.8 in Calm     87% 0 in 0 W/m2
22:35 38.3 °F 34.7 °F 29.8 in Calm     87% 0 in 0 W/m2
22:40 38.1 °F 34.5 °F 29.8 in Calm     87% 0 in 0 W/m2
22:45 38.1 °F 34.5 °F 29.8 in WNW 0.9 mph 1 mph 87% 0 in 0 W/m2
22:50 37.9 °F 34.3 °F 29.8 in Calm     87% 0 in 0 W/m2
22:55 37.9 °F 34.3 °F 29.8 in Calm     87% 0 in 0 W/m2
23:00 37.8 °F 34.2 °F 29.8 in Calm     87% 0 in 0 W/m2
23:05 37.4 °F 33.8 °F 29.8 in Calm     87% 0 in 0 W/m2
23:10 37 °F 33.6 °F 29.8 in Calm     87% 0 in 0 W/m2
23:15 36.9 °F 33.4 °F 29.8 in Calm     87% 0 in 0 W/m2
23:20 36.3 °F 33.1 °F 29.8 in Calm     88% 0 in 0 W/m2
23:25 36 °F 32.7 °F 29.8 in Calm     88% 0 in 0 W/m2
23:30 35.8 °F 32.5 °F 29.8 in Calm     88% 0 in 0 W/m2
23:35 35.2 °F 32.4 °F 29.8 in Calm     89% 0 in 0 W/m2
23:40 35.1 °F 32.2 °F 29.8 in Calm     89% 0 in 0 W/m2
23:45 34.5 °F 31.6 °F 29.8 in Calm     89% 0 in 0 W/m2
23:50 34.3 °F 31.6 °F 29.8 in Calm     90% 0 in 0 W/m2
23:55 34 °F 31.3 °F 29.8 in Calm     90% 0 in 0 W/m2
Juneau County Weather
Compliments of Weather Underground - 4 mb